Map

Track Data

SID SEASON NUMBER BASIN SUBBASIN NAME ISO_TIME NATURE LAT LON WMO_WIND WMO_PRES WMO_AGENCY TRACK_TYPE DIST2LAND LANDFALL IFLAG USA_AGENCY USA_ATCF_ID USA_LAT USA_LON USA_RECORD USA_STATUS USA_WIND USA_PRES USA_SSHS USA_R34_NE USA_R34_SE USA_R34_SW USA_R34_NW USA_R50_NE USA_R50_SE USA_R50_SW USA_R50_NW USA_R64_NE USA_R64_SE USA_R64_SW USA_R64_NW USA_POCI USA_ROCI USA_RMW USA_EYE TOKYO_LAT TOKYO_LON TOKYO_GRADE TOKYO_WIND TOKYO_PRES TOKYO_R50_DIR TOKYO_R50_LONG TOKYO_R50_SHORT TOKYO_R30_DIR TOKYO_R30_LONG TOKYO_R30_SHORT TOKYO_LAND CMA_LAT CMA_LON CMA_CAT CMA_WIND CMA_PRES HKO_LAT HKO_LON HKO_CAT HKO_WIND HKO_PRES NEWDELHI_LAT NEWDELHI_LON NEWDELHI_GRADE NEWDELHI_WIND NEWDELHI_PRES NEWDELHI_CI NEWDELHI_DP NEWDELHI_POCI REUNION_LAT REUNION_LON REUNION_TYPE REUNION_WIND REUNION_PRES REUNION_TNUM REUNION_CI REUNION_RMW REUNION_R34_NE REUNION_R34_SE REUNION_R34_SW REUNION_R34_NW REUNION_R50_NE REUNION_R50_SE REUNION_R50_SW REUNION_R50_NW REUNION_R64_NE REUNION_R64_SE REUNION_R64_SW REUNION_R64_NW BOM_LAT BOM_LON BOM_TYPE BOM_WIND BOM_PRES BOM_TNUM BOM_CI BOM_RMW BOM_R34_NE BOM_R34_SE BOM_R34_SW BOM_R34_NW BOM_R50_NE BOM_R50_SE BOM_R50_SW BOM_R50_NW BOM_R64_NE BOM_R64_SE BOM_R64_SW BOM_R64_NW BOM_ROCI BOM_POCI BOM_EYE BOM_POS_METHOD BOM_PRES_METHOD NADI_LAT NADI_LON NADI_CAT NADI_WIND NADI_PRES WELLINGTON_LAT WELLINGTON_LON WELLINGTON_WIND WELLINGTON_PRES DS824_LAT DS824_LON DS824_STAGE DS824_WIND DS824_PRES TD9636_LAT TD9636_LON TD9636_STAGE TD9636_WIND TD9636_PRES TD9635_LAT TD9635_LON TD9635_WIND TD9635_PRES TD9635_ROCI NEUMANN_LAT NEUMANN_LON NEUMANN_CLASS NEUMANN_WIND NEUMANN_PRES MLC_LAT MLC_LON MLC_CLASS MLC_WIND MLC_PRES USA_GUST BOM_GUST BOM_GUST_PER REUNION_GUST REUNION_GUST_PER USA_SEAHGT USA_SEARAD_NE USA_SEARAD_SE USA_SEARAD_SW USA_SEARAD_NW STORM_SPEED STORM_DIR
1985240N20286 1985 79 NA CS ELENA 1985-08-28 00:00:00 TS 19.8000 -74.0000 30 1012 hurdat_atl main 45 0 O_____________ hurdat_atl AL051985 19.8000 -74.0000 TD 30 1012 -1 21 298
1985240N20286 1985 79 NA NA ELENA 1985-08-28 03:00:00 TS 20.2962 -74.9989 main 0 0 P_____________ AL051985 20.2962 -74.9989 TD 30 1011 -1 21 298
1985240N20286 1985 79 NA NA ELENA 1985-08-28 06:00:00 TS 20.8000 -76.0000 30 1010 hurdat_atl main 0 0 O_____________ hurdat_atl AL051985 20.8000 -76.0000 TD 30 1010 -1 21 299
1985240N20286 1985 79 NA NA ELENA 1985-08-28 09:00:00 TS 21.3144 -77.0004 main 0 0 P_____________ AL051985 21.3144 -77.0004 TD 30 1009 -1 21 298
1985240N20286 1985 79 NA NA ELENA 1985-08-28 12:00:00 TS 21.8000 -78.0000 30 1008 hurdat_atl main 0 0 O_____________ hurdat_atl AL051985 21.8000 -78.0000 TD 30 1008 -1 21 296
1985240N20286 1985 79 NA NA ELENA 1985-08-28 15:00:00 TS 22.2296 -79.0154 main 0 0 P_____________ AL051985 22.2296 -79.0154 TD 37 1007 0 20 293
1985240N20286 1985 79 NA NA ELENA 1985-08-28 18:00:00 TS 22.6000 -80.0000 45 1006 hurdat_atl main 0 0 O_____________ hurdat_atl AL051985 22.6000 -80.0000 TS 45 1006 0 19 291
1985240N20286 1985 79 NA NA ELENA 1985-08-28 21:00:00 TS 22.8993 -80.9235 main 0 0 P_____________ AL051985 22.8993 -80.9235 TS 47 1005 0 18 290
1985240N20286 1985 79 NA NA ELENA 1985-08-29 00:00:00 TS 23.2000 -81.8000 50 1004 hurdat_atl main 11 11 O_____________ hurdat_atl AL051985 23.2000 -81.8000 TS 50 1004 0 17 293
1985240N20286 1985 79 NA NA ELENA 1985-08-29 03:00:00 TS 23.5697 -82.6729 main 59 59 P_____________ AL051985 23.5697 -82.6729 TS 52 1002 0 18 297
1985240N20286 1985 79 NA GM ELENA 1985-08-29 06:00:00 TS 24.0000 -83.5000 55 1000 hurdat_atl main 123 123 O_____________ hurdat_atl AL051985 24.0000 -83.5000 TS 55 1000 0 18 302
1985240N20286 1985 79 NA GM ELENA 1985-08-29 09:00:00 TS 24.4925 -84.3172 main 199 199 P_____________ AL051985 24.4925 -84.3172 TS 60 997 0 17 306
1985240N20286 1985 79 NA GM ELENA 1985-08-29 12:00:00 TS 25.0000 -85.0000 65 994 hurdat_atl main 276 276 O_____________ hurdat_atl AL051985 25.0000 -85.0000 HU 65 994 1 14 314
1985240N20286 1985 79 NA GM ELENA 1985-08-29 15:00:00 TS 25.4718 -85.4533 main 347 345 P_____________ AL051985 25.4718 -85.4533 HU 67 992 1 12 321
1985240N20286 1985 79 NA GM ELENA 1985-08-29 18:00:00 TS 25.9000 -85.8000 70 990 hurdat_atl main 354 354 O_____________ hurdat_atl AL051985 25.9000 -85.8000 HU 70 990 1 11 319
1985240N20286 1985 79 NA GM ELENA 1985-08-29 21:00:00 TS 26.2650 -86.2152 main 372 363 P_____________ AL051985 26.2650 -86.2152 HU 72 988 1 10 314
1985240N20286 1985 79 NA GM ELENA 1985-08-30 00:00:00 TS 26.6000 -86.6000 75 986 hurdat_atl main 363 318 O_____________ hurdat_atl AL051985 26.6000 -86.6000 HU 75 986 1 10 316
1985240N20286 1985 79 NA GM ELENA 1985-08-30 03:00:00 TS 26.9575 -86.9524 main 303 265 P_____________ AL051985 26.9575 -86.9524 HU 77 983 1 9 323
1985240N20286 1985 79 NA GM ELENA 1985-08-30 06:00:00 TS 27.3000 -87.2000 80 980 hurdat_atl main 265 235 O_____________ hurdat_atl AL051985 27.3000 -87.2000 HU 80 980 1 7 333
1985240N20286 1985 79 NA GM ELENA 1985-08-30 09:00:00 TS 27.6223 -87.3326 main 235 213 P_____________ AL051985 27.6223 -87.3326 HU 85 977 2 6 352
1985240N20286 1985 79 NA GM ELENA 1985-08-30 12:00:00 TS 27.9000 -87.3000 90 974 hurdat_atl main 213 206 O_____________ hurdat_atl AL051985 27.9000 -87.3000 HU 90 974 2 6 20
1985240N20286 1985 79 NA GM ELENA 1985-08-30 15:00:00 TS 28.1374 -87.1178 main 216 207 P_____________ AL051985 28.1374 -87.1178 HU 90 976 2 6 48
1985240N20286 1985 79 NA GM ELENA 1985-08-30 18:00:00 TS 28.3000 -86.8000 90 978 hurdat_atl main 207 174 O_____________ hurdat_atl AL051985 28.3000 -86.8000 HU 90 978 2 7 70
1985240N20286 1985 79 NA GM ELENA 1985-08-30 21:00:00 TS 28.3651 -86.4147 main 174 156 P_____________ AL051985 28.3651 -86.4147 HU 90 977 2 7 82
1985240N20286 1985 79 NA GM ELENA 1985-08-31 00:00:00 TS 28.4000 -86.0000 90 977 hurdat_atl main 156 137 O_____________ hurdat_atl AL051985 28.4000 -86.0000 HU 90 977 2 7 79
1985240N20286 1985 79 NA GM ELENA 1985-08-31 03:00:00 TS 28.4922 -85.6574 main 137 122 P_____________ AL051985 28.4922 -85.6574 HU 90 976 2 6 72
1985240N20286 1985 79 NA GM ELENA 1985-08-31 06:00:00 TS 28.6000 -85.3000 90 976 hurdat_atl main 122 111 O_____________ hurdat_atl AL051985 28.6000 -85.3000 HU 90 976 2 8 73
1985240N20286 1985 79 NA GM ELENA 1985-08-31 09:00:00 TS 28.7153 -84.8277 main 112 104 P_____________ AL051985 28.7153 -84.8277 HU 90 975 2 8 76
1985240N20286 1985 79 NA GM ELENA 1985-08-31 12:00:00 TS 28.8000 -84.4000 90 975 hurdat_atl main 111 110 O_____________ hurdat_atl AL051985 28.8000 -84.4000 HU 90 975 2 6 81
1985240N20286 1985 79 NA GM ELENA 1985-08-31 15:00:00 TS 28.8148 -84.1473 main 103 97 P_____________ AL051985 28.8148 -84.1473 HU 90 974 2 4 90
1985240N20286 1985 79 NA GM ELENA 1985-08-31 18:00:00 TS 28.8000 -84.0000 90 974 hurdat_atl main 97 89 O_____________ hurdat_atl AL051985 28.8000 -84.0000 HU 90 974 2 2 90
1985240N20286 1985 79 NA GM ELENA 1985-08-31 21:00:00 TS 28.8150 -83.8625 main 89 81 P_____________ AL051985 28.8150 -83.8625 HU 92 972 2 2 90
1985240N20286 1985 79 NA GM ELENA 1985-09-01 00:00:00 TS 28.8000 -83.8000 95 971 hurdat_atl main 81 81 O_____________ hurdat_atl AL051985 28.8000 -83.8000 HU 95 971 2 1 166
1985240N20286 1985 79 NA GM ELENA 1985-09-01 03:00:00 TS 28.7000 -83.8125 main 87 87 P_____________ AL051985 28.7000 -83.8125 HU 97 968 3 2 205
1985240N20286 1985 79 NA GM ELENA 1985-09-01 06:00:00 TS 28.6000 -83.9000 100 965 hurdat_atl main 102 102 O_____________ hurdat_atl AL051985 28.6000 -83.9000 HU 100 965 3 2 232
1985240N20286 1985 79 NA GM ELENA 1985-09-01 09:00:00 TS 28.5624 -84.0126 main 110 110 P_____________ AL051985 28.5624 -84.0126 HU 102 963 3 3 270
1985240N20286 1985 79 NA GM ELENA 1985-09-01 12:00:00 TS 28.6000 -84.2000 105 961 hurdat_atl main 126 121 O_____________ hurdat_atl AL051985 28.6000 -84.2000 HU 105 961 3 4 292
1985240N20286 1985 79 NA GM ELENA 1985-09-01 15:00:00 TS 28.7122 -84.4403 main 121 89 P_____________ AL051985 28.7122 -84.4403 HU 107 957 3 6 300
1985240N20286 1985 79 NA GM ELENA 1985-09-01 18:00:00 TS 28.9000 -84.8000 110 954 hurdat_atl main 89 66 O_____________ hurdat_atl AL051985 28.9000 -84.8000 HU 110 954 3 9 300
1985240N20286 1985 79 NA GM ELENA 1985-09-01 21:00:00 TS 29.1499 -85.2897 main 66 45 P_____________ AL051985 29.1499 -85.2897 HU 110 953 3 11 297
1985240N20286 1985 79 NA GM ELENA 1985-09-02 00:00:00 TS 29.4000 -85.9000 110 953 hurdat_atl main 58 58 O_____________ hurdat_atl AL051985 29.4000 -85.9000 HU 110 953 3 12 290
1985240N20286 1985 79 NA GM ELENA 1985-09-02 03:00:00 TS 29.5498 -86.5708 main 100 66 P_____________ AL051985 29.5498 -86.5708 HU 107 955 3 13 284
1985240N20286 1985 79 NA GM ELENA 1985-09-02 06:00:00 TS 29.7000 -87.3000 105 957 hurdat_atl main 67 45 O_____________ hurdat_atl AL051985 29.7000 -87.3000 HU 105 957 3 12 284
1985240N20286 1985 79 NA GM ELENA 1985-09-02 09:00:00 TS 29.8423 -87.9241 main 45 11 P_____________ AL051985 29.8423 -87.9241 HU 102 958 3 14 291
1985240N20286 1985 79 NA GM ELENA 1985-09-02 12:00:00 TS 30.2000 -88.8000 100 959 hurdat_atl main 14 0 O_____________ hurdat_atl AL051985 30.2000 -88.8000 HU 100 959 3 19 297
1985240N20286 1985 79 NA NA ELENA 1985-09-02 13:00:00 TS 30.4000 -89.2000 100 959 hurdat_atl main 0 0 O_____________ hurdat_atl AL051985 30.4000 -89.2000 L HU 100 959 3 20 300
1985240N20286 1985 79 NA NA ELENA 1985-09-02 15:00:00 TS 30.6891 -89.7961 main 0 0 P_____________ AL051985 30.6891 -89.7961 HU 83 971 2 14 300
1985240N20286 1985 79 NA NA ELENA 1985-09-02 18:00:00 TS 31.0000 -90.4000 60 990 hurdat_atl main 0 0 O_____________ hurdat_atl AL051985 31.0000 -90.4000 TS 60 990 0 14 304
1985240N20286 1985 79 NA NA ELENA 1985-09-02 21:00:00 TS 31.4645 -91.1320 main 0 0 P_____________ AL051985 31.4645 -91.1320 TS 52 995 0 15 307
1985240N20286 1985 79 NA NA ELENA 1985-09-03 00:00:00 TS 31.9000 -91.8000 45 1000 hurdat_atl main 0 0 O_____________ hurdat_atl AL051985 31.9000 -91.8000 TS 45 1000 0 12 304
1985240N20286 1985 79 NA NA ELENA 1985-09-03 03:00:00 TS 32.1570 -92.3389 main 0 0 P_____________ AL051985 32.1570 -92.3389 TS 37 1002 0 10 301
1985240N20286 1985 79 NA NA ELENA 1985-09-03 06:00:00 TS 32.4000 -92.8000 30 1004 hurdat_atl main 0 0 O_____________ hurdat_atl AL051985 32.4000 -92.8000 TD 30 1004 -1 10 306
1985240N20286 1985 79 NA NA ELENA 1985-09-03 09:00:00 TS 32.7401 -93.3023 main 0 0 P_____________ AL051985 32.7401 -93.3023 TD 27 1005 -1 11 317
1985240N20286 1985 79 NA NA ELENA 1985-09-03 12:00:00 TS 33.2000 -93.7000 25 1006 hurdat_atl main 0 0 O_____________ hurdat_atl AL051985 33.2000 -93.7000 TD 25 1006 -1 12 334
1985240N20286 1985 79 NA NA ELENA 1985-09-03 15:00:00 TS 33.8048 -93.9250 main 0 0 P_____________ AL051985 33.8048 -93.9250 TD 25 1007 -1 13 349
1985240N20286 1985 79 NA NA ELENA 1985-09-03 18:00:00 TS 34.5000 -94.0000 25 1008 hurdat_atl main 0 0 O_____________ hurdat_atl AL051985 34.5000 -94.0000 TD 25 1008 -1 14 357
1985240N20286 1985 79 NA NA ELENA 1985-09-03 21:00:00 TS 35.2148 -94.0247 main 0 0 P_____________ AL051985 35.2148 -94.0247 TD 22 1009 -1 14 3
1985240N20286 1985 79 NA NA ELENA 1985-09-04 00:00:00 TS 35.9000 -93.9000 20 1010 hurdat_atl main 0 0 O_____________ hurdat_atl AL051985 35.9000 -93.9000 TD 20 1010 -1 13 15
1985240N20286 1985 79 NA NA ELENA 1985-09-04 03:00:00 TS 36.4802 -93.5954 main 0 0 P_____________ AL051985 36.4802 -93.5954 TD 20 1010 -1 12 27
1985240N20286 1985 79 NA NA ELENA 1985-09-04 06:00:00 TS 37.0000 -93.2000 20 1010 hurdat_atl main 0 0 O_____________ hurdat_atl AL051985 37.0000 -93.2000 TD 20 1010 -1 12 29
1985240N20286 1985 79 NA NA ELENA 1985-09-04 09:00:00 TS 37.5221 -92.8791 main 0 0 P_____________ AL051985 37.5221 -92.8791 TD 20 1010 -1 11 29
1985240N20286 1985 79 NA NA ELENA 1985-09-04 12:00:00 TS 38.0000 -92.5000 20 1010 hurdat_atl main 0 0 O_____________ hurdat_atl AL051985 38.0000 -92.5000 TD 20 1010 -1 11 38
1985240N20286 1985 79 NA NA ELENA 1985-09-04 15:00:00 TS 38.4183 -91.9915 main 0 0 P_____________ AL051985 38.4183 -91.9915 TD 20 1010 -1 12 47
1985240N20286 1985 79 NA NA ELENA 1985-09-04 18:00:00 TS 38.8000 -91.4000 20 1010 hurdat_atl main 0 O_____________ hurdat_atl AL051985 38.8000 -91.4000 TD 20 1010 -1 12 50

About IBTrACS Database

This database is a web-friendly format of International Best Track Archive for Climate Stewardship (IBTrACS), a global best track data archive curated by NOAA dating back to 1842.

Updated: 2021-10-21